createdAt,value
2022-08-29T00:02:39.769Z,3.10
2022-08-29T00:07:50.255Z,2.60
2022-08-29T00:13:02.911Z,2.88
2022-08-29T00:18:10.554Z,3.28
2022-08-29T00:23:35.502Z,2.78
2022-08-29T00:28:51.048Z,3.03
2022-08-29T00:34:28.745Z,2.60
2022-08-29T00:39:46.902Z,2.83
2022-08-29T00:45:11.479Z,3.08
2022-08-29T00:50:36.594Z,3.38
2022-08-29T00:55:50.319Z,3.28
2022-08-29T01:01:18.972Z,3.47
2022-08-29T01:06:40.658Z,3.20
2022-08-29T01:12:19.282Z,3.08
2022-08-29T01:17:54.014Z,3.17
2022-08-29T01:23:09.627Z,3.03
2022-08-29T01:28:37.898Z,3.53
2022-08-29T01:33:54.445Z,3.33
2022-08-29T01:39:00.109Z,3.28
2022-08-29T01:44:20.230Z,3.40
2022-08-29T01:49:27.532Z,3.72
2022-08-29T01:54:58.591Z,3.40
2022-08-29T02:00:18.760Z,3.60
2022-08-29T02:05:30.928Z,3.78
2022-08-29T02:10:39.477Z,3.65
2022-08-29T02:16:03.665Z,3.90
2022-08-29T02:21:27.468Z,3.30
2022-08-29T02:26:50.186Z,3.58
2022-08-29T02:32:19.154Z,3.28
2022-08-29T02:37:27.616Z,3.30
2022-08-29T02:42:38.942Z,3.15
2022-08-29T02:47:58.232Z,3.60
2022-08-29T02:53:21.334Z,3.50
2022-08-29T02:58:50.957Z,3.35
2022-08-29T03:04:26.222Z,3.22
2022-08-29T03:09:37.845Z,3.30
2022-08-29T03:14:47.537Z,3.15
2022-08-29T03:19:59.461Z,2.92
2022-08-29T03:25:09.550Z,3.55
2022-08-29T03:30:23.986Z,3.15
2022-08-29T03:35:36.009Z,3.58
2022-08-29T03:40:44.391Z,3.63
2022-08-29T03:45:53.001Z,3.90
2022-08-29T03:51:15.978Z,3.53
2022-08-29T03:56:21.618Z,3.50
2022-08-29T04:01:39.927Z,3.70
2022-08-29T04:06:56.932Z,3.22
2022-08-29T04:12:04.145Z,3.78
2022-08-29T04:17:11.624Z,3.70
2022-08-29T04:22:28.652Z,3.45
2022-08-29T04:27:44.866Z,3.25
2022-08-29T04:33:07.531Z,3.70
2022-08-29T04:38:31.775Z,3.42
2022-08-29T04:43:58.294Z,3.33
2022-08-29T04:49:12.618Z,3.75
2022-08-29T04:54:24.003Z,4.13
2022-08-29T04:59:35.632Z,3.72
2022-08-29T05:04:46.992Z,4.18
2022-08-29T05:10:01.693Z,4.53
2022-08-29T05:15:07.457Z,4.43
2022-08-29T05:20:16.056Z,4.15
2022-08-29T05:25:37.472Z,4.63
2022-08-29T05:31:01.560Z,4.10
2022-08-29T05:36:07.510Z,4.35
2022-08-29T05:41:17.442Z,4.32
2022-08-29T05:46:24.694Z,5.13
2022-08-29T05:51:39.654Z,3.85
2022-08-29T05:57:03.510Z,4.72
2022-08-29T06:02:27.239Z,4.45
2022-08-29T06:07:41.055Z,4.97
2022-08-29T06:13:06.262Z,4.18
2022-08-29T06:18:12.773Z,3.90
2022-08-29T06:23:21.244Z,4.57
2022-08-29T06:28:53.449Z,4.03
2022-08-29T06:34:10.995Z,4.18
2022-08-29T06:39:22.318Z,3.60
2022-08-29T06:44:34.670Z,3.60
2022-08-29T06:49:41.414Z,3.42
2022-08-29T06:54:57.505Z,3.88
2022-08-29T07:00:21.709Z,3.22
2022-08-29T07:05:28.501Z,3.75
2022-08-29T07:10:42.513Z,3.03
2022-08-29T07:15:57.957Z,2.90
2022-08-29T07:21:03.448Z,3.15
2022-08-29T07:26:25.176Z,2.85
2022-08-29T07:31:32.742Z,3.17
2022-08-29T07:36:47.878Z,3.47
2022-08-29T07:47:39.464Z,2.83
2022-08-29T07:52:54.719Z,2.42
2022-08-29T07:58:17.718Z,2.30
2022-08-29T08:03:36.752Z,2.50
2022-08-29T08:08:53.694Z,2.28
2022-08-29T08:19:35.179Z,2.63
2022-08-29T08:24:38.698Z,2.42
2022-08-29T08:29:59.844Z,2.70
2022-08-29T08:35:11.286Z,2.63
2022-08-29T08:40:25.215Z,2.88
2022-08-29T08:45:37.081Z,2.70
2022-08-29T08:50:54.419Z,2.30
2022-08-29T08:56:04.166Z,2.10
2022-08-29T09:01:23.901Z,2.10
2022-08-29T09:06:53.705Z,1.80
2022-08-29T09:12:28.896Z,2.20
2022-08-29T09:17:53.545Z,2.13
2022-08-29T09:23:08.378Z,2.03
2022-08-29T09:28:19.551Z,1.80
2022-08-29T09:33:49.273Z,2.10
2022-08-29T09:44:39.444Z,1.80
2022-08-29T09:50:12.722Z,1.98
2022-08-29T10:01:14.835Z,1.95
2022-08-29T10:06:29.439Z,1.92
2022-08-29T10:11:51.799Z,1.83
2022-08-29T10:17:26.896Z,1.90
2022-08-29T10:22:44.205Z,1.98
2022-08-29T10:28:05.494Z,1.83
2022-08-29T10:33:35.828Z,1.85
2022-08-29T10:38:51.686Z,1.92
2022-08-29T10:44:09.521Z,2.05
2022-08-29T10:49:31.731Z,1.92
2022-08-29T10:54:54.064Z,1.80
2022-08-29T11:00:09.900Z,1.65
2022-08-29T11:05:19.389Z,1.58
2022-08-29T11:10:29.892Z,1.75
2022-08-29T11:15:59.381Z,1.50
2022-08-29T11:21:19.666Z,1.67
2022-08-29T11:26:45.175Z,2.17
2022-08-29T11:32:04.049Z,1.67
2022-08-29T11:37:45.867Z,1.75
2022-08-29T11:42:52.780Z,1.70
2022-08-29T11:48:22.458Z,1.67
2022-08-29T11:53:38.672Z,1.55
2022-08-29T11:58:52.846Z,1.77
2022-08-29T12:03:59.846Z,1.42
2022-08-29T12:09:18.357Z,1.88
2022-08-29T12:14:37.706Z,1.73
2022-08-29T12:19:53.266Z,1.88
2022-08-29T12:25:08.795Z,1.80
2022-08-29T12:30:23.484Z,1.58
2022-08-29T12:35:59.837Z,1.63
2022-08-29T12:41:26.533Z,1.73
2022-08-29T12:46:35.999Z,1.50
2022-08-29T12:51:45.069Z,1.73
2022-08-29T12:56:53.992Z,1.50
2022-08-29T13:02:04.520Z,2.03
2022-08-29T13:07:15.661Z,1.70
2022-08-29T13:12:30.576Z,1.90
2022-08-29T13:18:22.172Z,1.80
2022-08-29T13:23:48.030Z,1.70
2022-08-29T13:28:57.822Z,1.55
2022-08-29T13:34:25.924Z,1.92
2022-08-29T13:39:53.957Z,1.60
2022-08-29T13:45:17.483Z,2.28
2022-08-29T13:50:23.729Z,1.63
2022-08-29T13:55:36.260Z,1.70
2022-08-29T14:01:29.547Z,1.60
2022-08-29T14:06:36.821Z,1.80
2022-08-29T14:11:42.710Z,1.75
2022-08-29T14:16:54.030Z,1.35
2022-08-29T14:22:02.108Z,1.80
2022-08-29T14:27:14.055Z,1.65
2022-08-29T14:32:26.313Z,1.65
2022-08-29T14:37:36.012Z,1.67
2022-08-29T14:42:48.915Z,1.80
2022-08-29T14:47:54.981Z,1.50
2022-08-29T14:52:59.495Z,1.92
2022-08-29T14:58:04.744Z,1.98
2022-08-29T15:03:11.100Z,1.75
2022-08-29T15:08:15.983Z,2.60
2022-08-29T15:13:19.793Z,2.08
2022-08-29T15:19:05.498Z,1.20
2022-08-29T15:23:53.970Z,1.45
2022-08-29T15:28:59.663Z,1.60
2022-08-29T15:34:06.160Z,1.73
2022-08-29T15:39:11.389Z,1.90
2022-08-29T15:44:15.730Z,1.65
2022-08-29T15:49:22.245Z,1.60
2022-08-29T15:54:27.230Z,1.75
2022-08-29T15:59:56.725Z,1.50
2022-08-29T16:04:57.957Z,1.55
2022-08-29T16:10:04.808Z,1.70
2022-08-29T16:15:14.702Z,1.90
2022-08-29T16:20:19.661Z,1.75
2022-08-29T16:25:26.595Z,1.38
2022-08-29T16:30:30.631Z,1.70
2022-08-29T16:35:36.456Z,1.67
2022-08-29T16:40:40.147Z,2.05
2022-08-29T16:45:44.255Z,1.70
2022-08-29T16:50:50.150Z,1.67
2022-08-29T16:55:57.142Z,1.83
2022-08-29T17:01:01.182Z,1.88
2022-08-29T17:06:08.279Z,1.73
2022-08-29T17:11:13.121Z,2.17
2022-08-29T17:16:17.628Z,1.75
2022-08-29T17:21:23.659Z,2.03
2022-08-29T17:26:28.256Z,2.10
2022-08-29T17:31:32.053Z,2.20
2022-08-29T17:36:45.220Z,2.13
2022-08-29T17:41:51.719Z,2.03
2022-08-29T17:46:55.194Z,1.90
2022-08-29T17:52:00.691Z,2.60
2022-08-29T17:57:04.690Z,2.42
2022-08-29T18:02:08.978Z,2.28
2022-08-29T18:07:13.949Z,2.47
2022-08-29T18:12:17.339Z,2.30
2022-08-29T18:17:20.531Z,2.30
2022-08-29T18:22:27.697Z,2.60
2022-08-29T18:27:31.395Z,2.55
2022-08-29T18:32:37.171Z,2.70
2022-08-29T18:37:42.164Z,2.35
2022-08-29T18:42:49.183Z,2.50
2022-08-29T18:47:55.549Z,2.50
2022-08-29T18:53:00.303Z,2.17
2022-08-29T18:58:04.474Z,2.88
2022-08-29T19:03:08.015Z,2.60
2022-08-29T19:08:13.283Z,3.10
2022-08-29T19:13:17.844Z,2.17
2022-08-29T19:18:21.360Z,3.10
2022-08-29T19:23:26.882Z,2.88
2022-08-29T19:28:30.869Z,2.90
2022-08-29T19:33:47.562Z,2.80
2022-08-29T19:38:54.039Z,2.70
2022-08-29T19:44:00.714Z,3.08
2022-08-29T19:49:07.565Z,3.45
2022-08-29T19:54:13.902Z,3.28
2022-08-29T19:59:17.523Z,3.30
2022-08-29T20:04:24.769Z,3.00
2022-08-29T20:09:32.365Z,3.58
2022-08-29T20:14:36.299Z,2.70
2022-08-29T20:19:40.822Z,3.35
2022-08-29T20:24:46.167Z,3.63
2022-08-29T20:29:50.652Z,3.30
2022-08-29T20:34:54.745Z,3.13
2022-08-29T20:40:00.488Z,3.30
2022-08-29T20:45:05.182Z,2.80
2022-08-29T20:50:11.245Z,3.30
2022-08-29T20:55:18.232Z,2.85
2022-08-29T21:00:22.494Z,2.90
2022-08-29T21:05:42.795Z,3.05
2022-08-29T21:10:50.288Z,3.17
2022-08-29T21:15:56.776Z,3.13
2022-08-29T21:21:02.351Z,3.55
2022-08-29T21:26:08.406Z,3.20
2022-08-29T21:31:17.169Z,3.55
2022-08-29T21:36:22.831Z,3.28
2022-08-29T21:41:30.835Z,3.70
2022-08-29T21:46:37.557Z,3.92
2022-08-29T21:51:42.430Z,3.75
2022-08-29T21:56:49.476Z,3.85
2022-08-29T22:01:56.402Z,3.97
2022-08-29T22:07:02.065Z,3.50
2022-08-29T22:12:09.645Z,3.42
2022-08-29T22:17:18.621Z,3.25
2022-08-29T22:22:22.720Z,3.78
2022-08-29T22:27:29.866Z,3.72
2022-08-29T22:32:36.217Z,3.78
2022-08-29T22:37:40.264Z,3.72
2022-08-29T22:42:46.261Z,3.78
2022-08-29T22:47:51.210Z,3.65
2022-08-29T22:52:58.792Z,4.00
2022-08-29T22:58:05.109Z,3.80
2022-08-29T23:03:09.664Z,3.38
2022-08-29T23:08:13.438Z,3.75
2022-08-29T23:13:18.331Z,3.67
2022-08-29T23:18:22.295Z,3.53
2022-08-29T23:23:28.683Z,3.35
2022-08-29T23:28:36.532Z,3.60
2022-08-29T23:33:40.727Z,3.35
2022-08-29T23:38:44.554Z,3.15
2022-08-29T23:43:49.520Z,3.50
2022-08-29T23:48:56.519Z,3.60
2022-08-29T23:54:03.390Z,3.53
2022-08-29T23:59:33.833Z,3.58
